Duckwater, Nevada

7:29 PM PDT on August 27, 2016 (GMT -0700)
MesoWest | | Change Station

Elev 6687 ft 39.10 °N, 114.76 °W | Updated 50 minutes ago

Clear
Clear
0.0 °F
Feels Like -14 °F
N
8.0
Wind Variable Wind from North
Gusts 11.0 mph

Today
High -- | Low -- °F
--% Chance of Precip.
Yesterday
High -- | Low -- °F
Precip. -- in
Pressure 29.87 in
Visibility 10.0 miles
Clouds Clear
Windchill -14 °F
Dew Point 0.0 °F
Humidity 10%
Rainfall in
Snow Depth Not available.
6:03 AM 7:16 PM
Waning Crescent, 19% visible
METAR KELY 280153Z AUTO 33006KT 10SM CLR 24/M10 A3011 RMK AO2 SLP114 T02441100
Pressure 29.87 in
Visibility 10.0 miles
Clouds Clear
Windchill -14 °F
Dew Point 0.0 °F
Humidity 10%
Rainfall in
Snow Depth Not available.
6:03 AM 7:16 PM
Waning Crescent, 19% visible
METAR KELY 280153Z AUTO 33006KT 10SM CLR 24/M10 A3011 RMK AO2 SLP114 T02441100

10-Day Weather Forecast

Almanac

Astronomy

Aug. 27, 2016 Rise Set
Actual Time
Civil Twilight
Nautical Twilight
Astronomical Twilight
Moon
Length of Visible Light
Length of Day
Tomorrow will be .
, % of the Moon is Illuminated

Today's Extremes

State Highs State Lows

Community

WunderPhotos

Upload Photos

1,935,496 photos uploaded!

WunderBlog® & News

Nearby

Air Quality

  Air Quality AQ Index Pollutant
Not available.

Snow Depth

Station Depth Elevation

Earthquake Activity

City Distance Mag. Time & Date
Minimum magnitude displayed is 2.5.

Coastal Water Temperatures

Place Temperature

Stations

Nearby Weather Stations

Station Location Temp. Windchill Dew Point Humidity Wind Precip. Elev Updated Type
                   

Watches & Warnings

There are currently no watches in effect.